Portada
METAR-TAF:

METAR-TAF

Aeroports :

Le Touquet, França

latitud: 50-30-53N, longitud: 001-37-39E, altitud: 6 m

Observació

L'informe es va fer fa 34 minuts, a les 08:30 UTC
Vent 2 kt amb direcció variable
Temperatura 18°C
Humitat 77%
Pressió 1026 hPa
Visibilitat 10 km o més

METAR: LFAT 220830Z AUTO VRB02KT 9999 FEW020/// 18/14 Q1026 NOSIG

Hora: 11:04 (09:04 UTC)

Pronòstic

L'informe es va fer fa 1 hora i 4 minuts, a les 08:00 UTC
Pronòstic vàlid del 22 a les 09 UTC al 22 a les 18 UTC
Vent 3 kt del Sud/Sud-Est
Visibilitat 10 km o més
sense núvols per sota de 1500 mi sense presència de cumulonimbus.
Evolucionant progressivament
l' 22 a les 09 UTC al 22 a les 12 UTC
Vent 10 kt del Oest

TAF: LFAT 220800Z 2209/2218 15003KT CAVOK BECMG 2209/2212 28010KT

Observacions i pronòstics meteorològics de més de 4000 aeroports (METAR i TAF).

Les estacions disponibles són els punts grocs i vermells al mapa.

Posi el ratolí al punt desitjat per veure el nom de l'estació.

Feu clic per veure les observacions i els pronòstics meteorològics.

Per canviar el mapa: feu clic els botons verds amb una creu de color negre per apropar; al botó verd amb un guió per allunyar la imatge; o en les fletxes verdes per a mapes adjacents.


METAR-TAF: